Terminal Aerodrome Forecast
Issued by NWS

Current Version | Previous Version | Graphics & Text | Print | Product List | Glossary On
Versions: 1 2 3 4 5 6 7 8 9 10 11 12 13 14 15 16 17 18 19 20 21 22 23 24 25 26 27 28
000
FTUS41 KRLX 252204 AAF
TAFCKB
TAF AMD
KCKB 252204Z 2522/2618 28012G27KT P6SM FEW050 BKN060
     FM260300 28011G18KT P6SM BKN035
     FM261300 26008KT P6SM SCT045
     FM261700 25008KT P6SM SKC=

USA.gov is the U.S. government's official web portal to all federal, state and local government web resources and services.